sensor_id;sensor_type;location;lat;lon;timestamp;P1;durP1;ratioP1;P2;durP2;ratioP2
19679;SDS011;9989;48.962;9.182;2023-07-20T00:01:26;4.63;;;1.87;;
19679;SDS011;9989;48.962;9.182;2023-07-20T00:03:52;7.03;;;2.37;;
19679;SDS011;9989;48.962;9.182;2023-07-20T00:06:20;5.90;;;1.90;;
19679;SDS011;9989;48.962;9.182;2023-07-20T00:08:47;5.53;;;2.13;;
19679;SDS011;9989;48.962;9.182;2023-07-20T00:11:13;4.73;;;2.13;;
19679;SDS011;9989;48.962;9.182;2023-07-20T00:13:38;5.97;;;2.00;;
19679;SDS011;9989;48.962;9.182;2023-07-20T00:16:04;4.67;;;1.70;;
19679;SDS011;9989;48.962;9.182;2023-07-20T00:18:30;5.97;;;2.17;;
19679;SDS011;9989;48.962;9.182;2023-07-20T00:20:56;8.23;;;2.20;;
19679;SDS011;9989;48.962;9.182;2023-07-20T00:23:22;5.47;;;2.10;;
19679;SDS011;9989;48.962;9.182;2023-07-20T00:25:48;5.10;;;2.13;;
19679;SDS011;9989;48.962;9.182;2023-07-20T00:28:14;5.70;;;2.30;;
19679;SDS011;9989;48.962;9.182;2023-07-20T00:30:39;6.27;;;2.30;;
19679;SDS011;9989;48.962;9.182;2023-07-20T00:33:06;6.53;;;2.20;;
19679;SDS011;9989;48.962;9.182;2023-07-20T00:35:35;4.67;;;2.00;;
19679;SDS011;9989;48.962;9.182;2023-07-20T00:38:00;6.13;;;2.10;;
19679;SDS011;9989;48.962;9.182;2023-07-20T00:40:26;5.43;;;2.37;;
19679;SDS011;9989;48.962;9.182;2023-07-20T00:42:52;6.13;;;2.20;;
19679;SDS011;9989;48.962;9.182;2023-07-20T00:45:17;5.93;;;2.00;;
19679;SDS011;9989;48.962;9.182;2023-07-20T00:47:43;6.07;;;2.23;;
19679;SDS011;9989;48.962;9.182;2023-07-20T00:50:09;6.37;;;2.40;;
19679;SDS011;9989;48.962;9.182;2023-07-20T00:52:35;5.80;;;2.23;;
19679;SDS011;9989;48.962;9.182;2023-07-20T00:55:04;5.93;;;2.07;;
19679;SDS011;9989;48.962;9.182;2023-07-20T00:57:31;5.83;;;2.23;;
19679;SDS011;9989;48.962;9.182;2023-07-20T00:59:57;4.63;;;2.10;;
19679;SDS011;9989;48.962;9.182;2023-07-20T01:02:23;5.73;;;2.30;;
19679;SDS011;9989;48.962;9.182;2023-07-20T01:04:49;18.87;;;2.40;;
19679;SDS011;9989;48.962;9.182;2023-07-20T01:07:31;6.70;;;2.37;;
19679;SDS011;9989;48.962;9.182;2023-07-20T01:10:10;5.63;;;2.10;;
19679;SDS011;9989;48.962;9.182;2023-07-20T01:12:42;4.97;;;2.20;;
19679;SDS011;9989;48.962;9.182;2023-07-20T01:15:11;6.10;;;2.30;;
19679;SDS011;9989;48.962;9.182;2023-07-20T01:17:37;5.43;;;2.20;;
19679;SDS011;9989;48.962;9.182;2023-07-20T01:20:03;5.50;;;2.17;;
19679;SDS011;9989;48.962;9.182;2023-07-20T01:28:57;6.00;;;1.93;;
19679;SDS011;9989;48.962;9.182;2023-07-20T01:31:21;4.60;;;2.00;;
19679;SDS011;9989;48.962;9.182;2023-07-20T01:33:53;7.03;;;2.50;;
19679;SDS011;9989;48.962;9.182;2023-07-20T01:36:22;6.07;;;2.57;;
19679;SDS011;9989;48.962;9.182;2023-07-20T01:38:50;6.33;;;2.40;;
19679;SDS011;9989;48.962;9.182;2023-07-20T01:41:17;6.17;;;2.10;;
19679;SDS011;9989;48.962;9.182;2023-07-20T01:43:43;6.30;;;2.73;;
19679;SDS011;9989;48.962;9.182;2023-07-20T01:46:09;7.63;;;2.13;;
19679;SDS011;9989;48.962;9.182;2023-07-20T01:48:35;5.63;;;2.10;;
19679;SDS011;9989;48.962;9.182;2023-07-20T01:51:00;6.00;;;2.13;;
19679;SDS011;9989;48.962;9.182;2023-07-20T01:53:26;6.57;;;2.40;;
19679;SDS011;9989;48.962;9.182;2023-07-20T01:55:52;6.43;;;2.17;;
19679;SDS011;9989;48.962;9.182;2023-07-20T01:58:19;7.83;;;2.70;;
19679;SDS011;9989;48.962;9.182;2023-07-20T02:00:44;6.33;;;2.43;;
19679;SDS011;9989;48.962;9.182;2023-07-20T02:03:10;6.53;;;2.30;;
19679;SDS011;9989;48.962;9.182;2023-07-20T02:05:37;5.67;;;2.10;;
19679;SDS011;9989;48.962;9.182;2023-07-20T02:08:02;6.17;;;2.30;;
19679;SDS011;9989;48.962;9.182;2023-07-20T02:10:28;6.13;;;2.17;;
19679;SDS011;9989;48.962;9.182;2023-07-20T02:12:54;8.97;;;2.47;;
19679;SDS011;9989;48.962;9.182;2023-07-20T02:15:20;7.80;;;2.50;;
19679;SDS011;9989;48.962;9.182;2023-07-20T02:17:46;6.93;;;2.10;;
19679;SDS011;9989;48.962;9.182;2023-07-20T02:20:11;5.97;;;2.30;;
19679;SDS011;9989;48.962;9.182;2023-07-20T02:22:38;6.43;;;2.20;;
19679;SDS011;9989;48.962;9.182;2023-07-20T02:25:04;5.97;;;2.43;;
19679;SDS011;9989;48.962;9.182;2023-07-20T02:27:32;8.13;;;2.70;;
19679;SDS011;9989;48.962;9.182;2023-07-20T02:29:58;7.07;;;2.30;;
19679;SDS011;9989;48.962;9.182;2023-07-20T02:32:23;8.50;;;2.50;;
19679;SDS011;9989;48.962;9.182;2023-07-20T02:34:49;6.90;;;2.70;;
19679;SDS011;9989;48.962;9.182;2023-07-20T02:37:16;7.07;;;2.43;;
19679;SDS011;9989;48.962;9.182;2023-07-20T02:39:42;6.37;;;2.43;;
19679;SDS011;9989;48.962;9.182;2023-07-20T02:42:07;8.57;;;2.77;;
19679;SDS011;9989;48.962;9.182;2023-07-20T02:44:33;7.57;;;2.20;;
19679;SDS011;9989;48.962;9.182;2023-07-20T02:46:59;5.53;;;2.37;;
19679;SDS011;9989;48.962;9.182;2023-07-20T02:49:24;7.13;;;2.43;;
19679;SDS011;9989;48.962;9.182;2023-07-20T02:51:50;10.77;;;3.43;;
19679;SDS011;9989;48.962;9.182;2023-07-20T02:54:16;5.87;;;2.43;;
19679;SDS011;9989;48.962;9.182;2023-07-20T02:56:41;7.07;;;2.63;;
19679;SDS011;9989;48.962;9.182;2023-07-20T02:59:07;7.03;;;2.50;;
19679;SDS011;9989;48.962;9.182;2023-07-20T03:01:33;7.70;;;2.63;;
19679;SDS011;9989;48.962;9.182;2023-07-20T03:03:58;7.23;;;2.60;;
19679;SDS011;9989;48.962;9.182;2023-07-20T03:06:24;4.80;;;2.20;;
19679;SDS011;9989;48.962;9.182;2023-07-20T03:08:50;5.57;;;2.13;;
19679;SDS011;9989;48.962;9.182;2023-07-20T03:11:17;8.53;;;3.23;;
19679;SDS011;9989;48.962;9.182;2023-07-20T03:13:44;6.70;;;2.37;;
19679;SDS011;9989;48.962;9.182;2023-07-20T03:16:10;6.57;;;2.73;;
19679;SDS011;9989;48.962;9.182;2023-07-20T03:18:37;6.23;;;2.30;;
19679;SDS011;9989;48.962;9.182;2023-07-20T03:21:03;6.90;;;2.57;;
19679;SDS011;9989;48.962;9.182;2023-07-20T03:23:30;10.17;;;2.60;;
19679;SDS011;9989;48.962;9.182;2023-07-20T03:25:55;5.93;;;2.40;;
19679;SDS011;9989;48.962;9.182;2023-07-20T03:28:21;5.97;;;2.60;;
19679;SDS011;9989;48.962;9.182;2023-07-20T03:30:52;5.80;;;2.30;;
19679;SDS011;9989;48.962;9.182;2023-07-20T03:33:19;8.67;;;2.53;;
19679;SDS011;9989;48.962;9.182;2023-07-20T03:35:45;5.87;;;2.13;;
19679;SDS011;9989;48.962;9.182;2023-07-20T03:38:11;4.80;;;2.07;;
19679;SDS011;9989;48.962;9.182;2023-07-20T03:40:36;6.60;;;2.10;;
19679;SDS011;9989;48.962;9.182;2023-07-20T03:43:02;7.07;;;2.50;;
19679;SDS011;9989;48.962;9.182;2023-07-20T03:45:28;9.60;;;2.80;;
19679;SDS011;9989;48.962;9.182;2023-07-20T03:47:53;11.50;;;2.70;;
19679;SDS011;9989;48.962;9.182;2023-07-20T03:50:19;6.23;;;2.63;;
19679;SDS011;9989;48.962;9.182;2023-07-20T03:52:45;6.93;;;2.70;;
19679;SDS011;9989;48.962;9.182;2023-07-20T03:55:10;9.10;;;2.80;;
19679;SDS011;9989;48.962;9.182;2023-07-20T03:57:36;7.00;;;2.80;;
19679;SDS011;9989;48.962;9.182;2023-07-20T04:00:02;6.53;;;2.40;;
19679;SDS011;9989;48.962;9.182;2023-07-20T04:02:29;6.30;;;2.60;;
19679;SDS011;9989;48.962;9.182;2023-07-20T04:04:54;6.63;;;2.63;;
19679;SDS011;9989;48.962;9.182;2023-07-20T04:07:20;6.93;;;2.90;;
19679;SDS011;9989;48.962;9.182;2023-07-20T04:09:46;5.57;;;2.50;;
19679;SDS011;9989;48.962;9.182;2023-07-20T04:12:11;10.80;;;2.47;;
19679;SDS011;9989;48.962;9.182;2023-07-20T04:14:37;7.00;;;2.80;;
19679;SDS011;9989;48.962;9.182;2023-07-20T04:17:02;8.70;;;2.93;;
19679;SDS011;9989;48.962;9.182;2023-07-20T04:19:28;6.53;;;2.97;;
19679;SDS011;9989;48.962;9.182;2023-07-20T04:21:54;5.97;;;2.87;;
19679;SDS011;9989;48.962;9.182;2023-07-20T04:24:20;6.73;;;2.30;;
19679;SDS011;9989;48.962;9.182;2023-07-20T04:26:45;7.40;;;2.70;;
19679;SDS011;9989;48.962;9.182;2023-07-20T04:29:11;7.70;;;3.43;;
19679;SDS011;9989;48.962;9.182;2023-07-20T04:31:36;7.23;;;2.90;;
19679;SDS011;9989;48.962;9.182;2023-07-20T04:34:02;7.47;;;2.67;;
19679;SDS011;9989;48.962;9.182;2023-07-20T04:36:28;6.90;;;2.90;;
19679;SDS011;9989;48.962;9.182;2023-07-20T04:38:53;6.97;;;3.13;;
19679;SDS011;9989;48.962;9.182;2023-07-20T04:41:19;7.93;;;2.60;;
19679;SDS011;9989;48.962;9.182;2023-07-20T04:43:45;5.90;;;2.57;;
19679;SDS011;9989;48.962;9.182;2023-07-20T04:46:11;4.53;;;1.93;;
19679;SDS011;9989;48.962;9.182;2023-07-20T04:48:37;8.93;;;3.20;;
19679;SDS011;9989;48.962;9.182;2023-07-20T04:51:03;7.53;;;2.70;;
19679;SDS011;9989;48.962;9.182;2023-07-20T04:53:29;7.50;;;2.33;;
19679;SDS011;9989;48.962;9.182;2023-07-20T04:55:56;7.90;;;2.33;;
19679;SDS011;9989;48.962;9.182;2023-07-20T04:58:21;11.83;;;2.37;;
19679;SDS011;9989;48.962;9.182;2023-07-20T05:00:48;9.47;;;2.73;;
19679;SDS011;9989;48.962;9.182;2023-07-20T05:03:14;7.70;;;2.67;;
19679;SDS011;9989;48.962;9.182;2023-07-20T05:05:40;6.97;;;2.60;;
19679;SDS011;9989;48.962;9.182;2023-07-20T05:08:06;6.17;;;2.70;;
19679;SDS011;9989;48.962;9.182;2023-07-20T05:10:32;8.73;;;2.43;;
19679;SDS011;9989;48.962;9.182;2023-07-20T05:12:58;5.80;;;2.30;;
19679;SDS011;9989;48.962;9.182;2023-07-20T05:15:24;8.90;;;2.70;;
19679;SDS011;9989;48.962;9.182;2023-07-20T05:17:49;7.33;;;2.70;;
19679;SDS011;9989;48.962;9.182;2023-07-20T05:20:15;10.00;;;2.60;;
19679;SDS011;9989;48.962;9.182;2023-07-20T05:22:42;6.97;;;2.30;;
19679;SDS011;9989;48.962;9.182;2023-07-20T05:25:08;4.47;;;2.07;;
19679;SDS011;9989;48.962;9.182;2023-07-20T05:27:38;8.50;;;2.87;;
19679;SDS011;9989;48.962;9.182;2023-07-20T05:30:05;6.07;;;2.67;;
19679;SDS011;9989;48.962;9.182;2023-07-20T05:32:34;6.20;;;2.60;;
19679;SDS011;9989;48.962;9.182;2023-07-20T05:35:00;8.60;;;3.03;;
19679;SDS011;9989;48.962;9.182;2023-07-20T05:37:26;6.20;;;2.50;;
19679;SDS011;9989;48.962;9.182;2023-07-20T05:39:52;7.13;;;2.50;;
19679;SDS011;9989;48.962;9.182;2023-07-20T05:42:17;7.33;;;2.80;;
19679;SDS011;9989;48.962;9.182;2023-07-20T05:44:43;11.73;;;3.67;;
19679;SDS011;9989;48.962;9.182;2023-07-20T05:47:09;9.27;;;3.17;;
19679;SDS011;9989;48.962;9.182;2023-07-20T05:49:35;7.50;;;2.70;;
19679;SDS011;9989;48.962;9.182;2023-07-20T05:52:00;8.00;;;2.60;;
19679;SDS011;9989;48.962;9.182;2023-07-20T05:54:26;6.73;;;2.77;;
19679;SDS011;9989;48.962;9.182;2023-07-20T05:56:52;6.73;;;2.67;;
19679;SDS011;9989;48.962;9.182;2023-07-20T05:59:18;7.77;;;2.43;;
19679;SDS011;9989;48.962;9.182;2023-07-20T06:01:45;7.37;;;2.90;;
19679;SDS011;9989;48.962;9.182;2023-07-20T06:04:13;6.27;;;2.47;;
19679;SDS011;9989;48.962;9.182;2023-07-20T06:06:39;5.10;;;2.37;;
19679;SDS011;9989;48.962;9.182;2023-07-20T06:09:04;7.27;;;2.70;;
19679;SDS011;9989;48.962;9.182;2023-07-20T06:11:34;7.23;;;2.70;;
19679;SDS011;9989;48.962;9.182;2023-07-20T06:14:00;6.40;;;2.87;;
19679;SDS011;9989;48.962;9.182;2023-07-20T06:16:26;8.97;;;3.13;;
19679;SDS011;9989;48.962;9.182;2023-07-20T06:18:52;7.90;;;2.67;;
19679;SDS011;9989;48.962;9.182;2023-07-20T06:21:17;7.80;;;2.40;;
19679;SDS011;9989;48.962;9.182;2023-07-20T06:23:43;8.30;;;2.83;;
19679;SDS011;9989;48.962;9.182;2023-07-20T06:26:09;7.73;;;2.60;;
19679;SDS011;9989;48.962;9.182;2023-07-20T06:28:34;6.43;;;2.50;;
19679;SDS011;9989;48.962;9.182;2023-07-20T06:31:01;5.37;;;2.13;;
19679;SDS011;9989;48.962;9.182;2023-07-20T06:33:28;7.47;;;2.40;;
19679;SDS011;9989;48.962;9.182;2023-07-20T06:35:53;6.40;;;2.30;;
19679;SDS011;9989;48.962;9.182;2023-07-20T06:38:19;6.13;;;2.50;;
19679;SDS011;9989;48.962;9.182;2023-07-20T06:40:46;5.57;;;2.20;;
19679;SDS011;9989;48.962;9.182;2023-07-20T06:43:12;8.17;;;2.80;;
19679;SDS011;9989;48.962;9.182;2023-07-20T06:45:37;4.83;;;2.10;;
19679;SDS011;9989;48.962;9.182;2023-07-20T06:48:03;8.37;;;2.70;;
19679;SDS011;9989;48.962;9.182;2023-07-20T06:50:29;7.03;;;2.00;;
19679;SDS011;9989;48.962;9.182;2023-07-20T06:52:54;6.93;;;2.37;;
19679;SDS011;9989;48.962;9.182;2023-07-20T06:55:20;5.60;;;2.20;;
19679;SDS011;9989;48.962;9.182;2023-07-20T06:57:46;6.50;;;2.57;;
19679;SDS011;9989;48.962;9.182;2023-07-20T07:00:12;7.27;;;2.50;;
19679;SDS011;9989;48.962;9.182;2023-07-20T07:02:38;6.47;;;2.07;;
19679;SDS011;9989;48.962;9.182;2023-07-20T07:05:04;4.67;;;1.93;;
19679;SDS011;9989;48.962;9.182;2023-07-20T07:07:30;6.37;;;2.60;;
19679;SDS011;9989;48.962;9.182;2023-07-20T07:09:56;7.07;;;2.53;;
19679;SDS011;9989;48.962;9.182;2023-07-20T07:12:21;6.23;;;2.37;;
19679;SDS011;9989;48.962;9.182;2023-07-20T07:14:47;6.67;;;2.30;;
19679;SDS011;9989;48.962;9.182;2023-07-20T07:17:13;6.80;;;2.20;;
19679;SDS011;9989;48.962;9.182;2023-07-20T07:19:39;6.10;;;2.90;;
19679;SDS011;9989;48.962;9.182;2023-07-20T07:22:05;6.90;;;2.30;;
19679;SDS011;9989;48.962;9.182;2023-07-20T07:24:31;7.33;;;2.30;;
19679;SDS011;9989;48.962;9.182;2023-07-20T07:27:01;6.63;;;2.17;;
19679;SDS011;9989;48.962;9.182;2023-07-20T07:29:27;7.17;;;2.50;;
19679;SDS011;9989;48.962;9.182;2023-07-20T07:31:53;7.37;;;2.73;;
19679;SDS011;9989;48.962;9.182;2023-07-20T07:34:18;8.37;;;2.00;;
19679;SDS011;9989;48.962;9.182;2023-07-20T07:36:44;5.07;;;2.17;;
19679;SDS011;9989;48.962;9.182;2023-07-20T07:39:10;5.47;;;2.30;;
19679;SDS011;9989;48.962;9.182;2023-07-20T07:41:36;9.47;;;2.93;;
19679;SDS011;9989;48.962;9.182;2023-07-20T07:44:01;8.00;;;2.83;;
19679;SDS011;9989;48.962;9.182;2023-07-20T07:46:27;6.37;;;2.50;;
19679;SDS011;9989;48.962;9.182;2023-07-20T07:48:53;5.80;;;2.30;;
19679;SDS011;9989;48.962;9.182;2023-07-20T07:51:18;7.40;;;2.63;;
19679;SDS011;9989;48.962;9.182;2023-07-20T07:53:45;6.70;;;2.40;;
19679;SDS011;9989;48.962;9.182;2023-07-20T07:56:11;5.13;;;2.30;;
19679;SDS011;9989;48.962;9.182;2023-07-20T07:58:37;7.10;;;2.50;;
19679;SDS011;9989;48.962;9.182;2023-07-20T08:01:03;7.43;;;2.77;;
19679;SDS011;9989;48.962;9.182;2023-07-20T08:03:29;9.17;;;2.33;;
19679;SDS011;9989;48.962;9.182;2023-07-20T08:05:55;11.10;;;2.80;;
19679;SDS011;9989;48.962;9.182;2023-07-20T08:08:21;6.67;;;2.40;;
19679;SDS011;9989;48.962;9.182;2023-07-20T08:10:47;9.10;;;2.47;;
19679;SDS011;9989;48.962;9.182;2023-07-20T08:13:13;6.73;;;2.40;;
19679;SDS011;9989;48.962;9.182;2023-07-20T08:15:38;6.73;;;2.90;;
19679;SDS011;9989;48.962;9.182;2023-07-20T08:18:04;6.13;;;2.50;;
19679;SDS011;9989;48.962;9.182;2023-07-20T08:20:30;5.67;;;2.10;;
19679;SDS011;9989;48.962;9.182;2023-07-20T08:22:57;6.20;;;2.57;;
19679;SDS011;9989;48.962;9.182;2023-07-20T08:25:25;5.67;;;2.30;;
19679;SDS011;9989;48.962;9.182;2023-07-20T08:27:51;5.50;;;2.23;;
19679;SDS011;9989;48.962;9.182;2023-07-20T08:30:17;6.80;;;2.60;;
19679;SDS011;9989;48.962;9.182;2023-07-20T08:32:43;6.13;;;2.30;;
19679;SDS011;9989;48.962;9.182;2023-07-20T08:35:08;9.23;;;2.37;;
19679;SDS011;9989;48.962;9.182;2023-07-20T08:37:34;6.80;;;2.60;;
19679;SDS011;9989;48.962;9.182;2023-07-20T08:40:00;7.20;;;2.60;;
19679;SDS011;9989;48.962;9.182;2023-07-20T08:42:26;5.57;;;2.27;;
19679;SDS011;9989;48.962;9.182;2023-07-20T08:44:52;6.87;;;2.20;;
19679;SDS011;9989;48.962;9.182;2023-07-20T08:47:20;5.80;;;2.13;;
19679;SDS011;9989;48.962;9.182;2023-07-20T08:49:49;9.03;;;2.70;;
19679;SDS011;9989;48.962;9.182;2023-07-20T08:52:15;6.77;;;2.00;;
19679;SDS011;9989;48.962;9.182;2023-07-20T08:54:41;5.33;;;2.00;;
19679;SDS011;9989;48.962;9.182;2023-07-20T08:57:07;7.73;;;2.40;;
19679;SDS011;9989;48.962;9.182;2023-07-20T08:59:36;6.87;;;2.23;;
19679;SDS011;9989;48.962;9.182;2023-07-20T09:02:02;6.90;;;2.00;;
19679;SDS011;9989;48.962;9.182;2023-07-20T09:04:30;5.37;;;1.97;;
19679;SDS011;9989;48.962;9.182;2023-07-20T09:06:56;4.93;;;1.90;;
19679;SDS011;9989;48.962;9.182;2023-07-20T09:09:22;5.37;;;2.13;;
19679;SDS011;9989;48.962;9.182;2023-07-20T09:11:51;6.33;;;2.10;;
19679;SDS011;9989;48.962;9.182;2023-07-20T09:14:16;4.47;;;2.00;;
19679;SDS011;9989;48.962;9.182;2023-07-20T09:16:49;7.47;;;2.00;;
19679;SDS011;9989;48.962;9.182;2023-07-20T09:19:15;4.70;;;1.87;;
19679;SDS011;9989;48.962;9.182;2023-07-20T09:21:44;5.63;;;2.17;;
19679;SDS011;9989;48.962;9.182;2023-07-20T09:24:10;5.43;;;2.37;;
19679;SDS011;9989;48.962;9.182;2023-07-20T09:26:40;6.63;;;2.43;;
19679;SDS011;9989;48.962;9.182;2023-07-20T09:29:08;5.07;;;2.07;;
19679;SDS011;9989;48.962;9.182;2023-07-20T09:31:36;7.73;;;2.50;;
19679;SDS011;9989;48.962;9.182;2023-07-20T09:34:05;8.17;;;2.10;;
19679;SDS011;9989;48.962;9.182;2023-07-20T09:36:32;5.30;;;2.20;;
19679;SDS011;9989;48.962;9.182;2023-07-20T09:39:00;4.77;;;1.70;;
19679;SDS011;9989;48.962;9.182;2023-07-20T09:41:26;4.30;;;1.83;;
19679;SDS011;9989;48.962;9.182;2023-07-20T09:43:51;3.97;;;1.80;;
19679;SDS011;9989;48.962;9.182;2023-07-20T09:46:18;7.70;;;2.07;;
19679;SDS011;9989;48.962;9.182;2023-07-20T09:48:54;3.90;;;1.60;;
19679;SDS011;9989;48.962;9.182;2023-07-20T09:51:23;5.00;;;2.07;;
19679;SDS011;9989;48.962;9.182;2023-07-20T09:53:50;6.37;;;1.30;;
19679;SDS011;9989;48.962;9.182;2023-07-20T09:56:20;5.53;;;1.77;;
19679;SDS011;9989;48.962;9.182;2023-07-20T09:58:48;3.50;;;1.63;;
19679;SDS011;9989;48.962;9.182;2023-07-20T10:01:14;6.33;;;2.20;;
19679;SDS011;9989;48.962;9.182;2023-07-20T10:03:46;4.27;;;1.83;;
19679;SDS011;9989;48.962;9.182;2023-07-20T10:06:13;5.53;;;2.23;;
19679;SDS011;9989;48.962;9.182;2023-07-20T10:08:42;13.50;;;2.30;;
19679;SDS011;9989;48.962;9.182;2023-07-20T10:11:09;6.67;;;2.10;;
19679;SDS011;9989;48.962;9.182;2023-07-20T10:13:38;5.77;;;2.07;;
19679;SDS011;9989;48.962;9.182;2023-07-20T10:16:15;4.90;;;1.83;;
19679;SDS011;9989;48.962;9.182;2023-07-20T10:19:07;4.47;;;1.93;;
19679;SDS011;9989;48.962;9.182;2023-07-20T10:21:33;4.50;;;1.90;;
19679;SDS011;9989;48.962;9.182;2023-07-20T10:24:02;6.83;;;2.07;;
19679;SDS011;9989;48.962;9.182;2023-07-20T10:26:29;10.03;;;3.10;;
19679;SDS011;9989;48.962;9.182;2023-07-20T10:28:54;5.47;;;1.80;;
19679;SDS011;9989;48.962;9.182;2023-07-20T10:31:22;6.03;;;2.67;;
19679;SDS011;9989;48.962;9.182;2023-07-20T10:33:48;4.37;;;1.90;;
19679;SDS011;9989;48.962;9.182;2023-07-20T10:36:15;3.70;;;1.40;;
19679;SDS011;9989;48.962;9.182;2023-07-20T10:38:52;4.20;;;1.60;;
19679;SDS011;9989;48.962;9.182;2023-07-20T10:41:20;5.90;;;1.90;;
19679;SDS011;9989;48.962;9.182;2023-07-20T10:43:50;7.73;;;1.87;;
19679;SDS011;9989;48.962;9.182;2023-07-20T10:49:08;6.53;;;2.03;;
19679;SDS011;9989;48.962;9.182;2023-07-20T10:51:42;5.90;;;1.90;;
19679;SDS011;9989;48.962;9.182;2023-07-20T10:54:53;4.67;;;1.90;;
19679;SDS011;9989;48.962;9.182;2023-07-20T10:56:55;4.67;;;1.90;;
19679;SDS011;9989;48.962;9.182;2023-07-20T11:01:56;5.20;;;1.80;;
19679;SDS011;9989;48.962;9.182;2023-07-20T11:04:44;5.37;;;1.90;;
19679;SDS011;9989;48.962;9.182;2023-07-20T11:07:14;4.87;;;1.90;;
19679;SDS011;9989;48.962;9.182;2023-07-20T11:09:42;5.87;;;2.30;;
19679;SDS011;9989;48.962;9.182;2023-07-20T11:12:14;5.73;;;1.90;;
19679;SDS011;9989;48.962;9.182;2023-07-20T11:14:54;3.97;;;1.90;;
19679;SDS011;9989;48.962;9.182;2023-07-20T11:17:22;6.87;;;1.70;;
19679;SDS011;9989;48.962;9.182;2023-07-20T11:19:58;5.33;;;1.80;;
19679;SDS011;9989;48.962;9.182;2023-07-20T11:22:25;4.53;;;1.70;;
19679;SDS011;9989;48.962;9.182;2023-07-20T11:24:55;4.80;;;1.77;;
19679;SDS011;9989;48.962;9.182;2023-07-20T11:27:22;4.33;;;1.60;;
19679;SDS011;9989;48.962;9.182;2023-07-20T11:29:48;4.13;;;1.63;;
19679;SDS011;9989;48.962;9.182;2023-07-20T11:32:20;4.30;;;1.60;;
19679;SDS011;9989;48.962;9.182;2023-07-20T11:34:47;4.37;;;1.77;;
19679;SDS011;9989;48.962;9.182;2023-07-20T11:37:13;4.50;;;1.60;;
19679;SDS011;9989;48.962;9.182;2023-07-20T11:39:38;4.97;;;2.00;;
19679;SDS011;9989;48.962;9.182;2023-07-20T11:42:04;4.23;;;1.73;;
19679;SDS011;9989;48.962;9.182;2023-07-20T11:44:31;4.40;;;1.80;;
19679;SDS011;9989;48.962;9.182;2023-07-20T11:47:04;5.37;;;2.00;;
19679;SDS011;9989;48.962;9.182;2023-07-20T11:49:42;5.50;;;2.27;;
19679;SDS011;9989;48.962;9.182;2023-07-20T11:52:13;4.57;;;1.90;;
19679;SDS011;9989;48.962;9.182;2023-07-20T11:54:41;5.17;;;2.00;;
19679;SDS011;9989;48.962;9.182;2023-07-20T11:57:15;4.20;;;1.93;;
19679;SDS011;9989;48.962;9.182;2023-07-20T11:59:52;5.53;;;2.00;;
19679;SDS011;9989;48.962;9.182;2023-07-20T12:02:29;4.43;;;2.00;;
19679;SDS011;9989;48.962;9.182;2023-07-20T12:04:55;4.63;;;1.93;;
19679;SDS011;9989;48.962;9.182;2023-07-20T12:07:22;5.53;;;2.20;;
19679;SDS011;9989;48.962;9.182;2023-07-20T12:10:03;5.77;;;2.10;;
19679;SDS011;9989;48.962;9.182;2023-07-20T12:12:33;5.87;;;2.17;;
19679;SDS011;9989;48.962;9.182;2023-07-20T12:15:15;5.20;;;1.70;;
19679;SDS011;9989;48.962;9.182;2023-07-20T12:17:45;5.23;;;1.90;;
19679;SDS011;9989;48.962;9.182;2023-07-20T12:20:23;3.93;;;1.80;;
19679;SDS011;9989;48.962;9.182;2023-07-20T12:22:52;5.43;;;1.70;;
19679;SDS011;9989;48.962;9.182;2023-07-20T12:25:20;4.30;;;1.83;;
19679;SDS011;9989;48.962;9.182;2023-07-20T12:27:47;4.77;;;1.73;;
19679;SDS011;9989;48.962;9.182;2023-07-20T12:30:13;4.33;;;1.70;;
19679;SDS011;9989;48.962;9.182;2023-07-20T12:32:39;4.73;;;1.83;;
19679;SDS011;9989;48.962;9.182;2023-07-20T12:35:05;3.97;;;1.67;;
19679;SDS011;9989;48.962;9.182;2023-07-20T12:37:31;4.40;;;1.90;;
19679;SDS011;9989;48.962;9.182;2023-07-20T12:39:57;3.40;;;1.50;;
19679;SDS011;9989;48.962;9.182;2023-07-20T12:42:23;7.13;;;1.90;;
19679;SDS011;9989;48.962;9.182;2023-07-20T12:44:49;7.63;;;1.70;;
19679;SDS011;9989;48.962;9.182;2023-07-20T12:47:16;4.83;;;1.80;;
19679;SDS011;9989;48.962;9.182;2023-07-20T12:49:43;5.03;;;1.73;;
19679;SDS011;9989;48.962;9.182;2023-07-20T12:52:11;3.77;;;1.67;;
19679;SDS011;9989;48.962;9.182;2023-07-20T12:54:37;4.43;;;1.77;;
19679;SDS011;9989;48.962;9.182;2023-07-20T12:57:03;3.20;;;1.50;;
19679;SDS011;9989;48.962;9.182;2023-07-20T12:59:29;7.93;;;1.80;;
19679;SDS011;9989;48.962;9.182;2023-07-20T13:01:54;5.73;;;2.03;;
19679;SDS011;9989;48.962;9.182;2023-07-20T13:04:20;4.23;;;1.50;;
19679;SDS011;9989;48.962;9.182;2023-07-20T13:06:46;4.17;;;1.80;;
19679;SDS011;9989;48.962;9.182;2023-07-20T13:09:11;3.20;;;1.63;;
19679;SDS011;9989;48.962;9.182;2023-07-20T13:11:37;3.67;;;1.60;;
19679;SDS011;9989;48.962;9.182;2023-07-20T13:14:02;4.03;;;1.80;;
19679;SDS011;9989;48.962;9.182;2023-07-20T13:16:28;4.23;;;1.77;;
19679;SDS011;9989;48.962;9.182;2023-07-20T13:18:54;3.63;;;1.60;;
19679;SDS011;9989;48.962;9.182;2023-07-20T13:21:19;5.63;;;1.47;;
19679;SDS011;9989;48.962;9.182;2023-07-20T13:23:48;3.53;;;1.50;;
19679;SDS011;9989;48.962;9.182;2023-07-20T13:26:14;3.87;;;1.80;;
19679;SDS011;9989;48.962;9.182;2023-07-20T13:28:41;6.37;;;1.53;;
19679;SDS011;9989;48.962;9.182;2023-07-20T13:31:06;4.23;;;1.70;;
19679;SDS011;9989;48.962;9.182;2023-07-20T13:33:33;4.63;;;1.70;;
19679;SDS011;9989;48.962;9.182;2023-07-20T13:36:00;4.33;;;1.77;;
19679;SDS011;9989;48.962;9.182;2023-07-20T13:38:26;5.80;;;1.80;;
19679;SDS011;9989;48.962;9.182;2023-07-20T13:40:51;4.23;;;1.73;;
19679;SDS011;9989;48.962;9.182;2023-07-20T13:43:17;4.60;;;1.40;;
19679;SDS011;9989;48.962;9.182;2023-07-20T13:45:43;4.70;;;1.87;;
19679;SDS011;9989;48.962;9.182;2023-07-20T13:48:08;4.97;;;1.80;;
19679;SDS011;9989;48.962;9.182;2023-07-20T13:50:34;3.33;;;1.43;;
19679;SDS011;9989;48.962;9.182;2023-07-20T13:53:00;4.77;;;1.80;;
19679;SDS011;9989;48.962;9.182;2023-07-20T13:55:27;4.33;;;1.90;;
19679;SDS011;9989;48.962;9.182;2023-07-20T13:57:53;5.67;;;1.77;;
19679;SDS011;9989;48.962;9.182;2023-07-20T14:00:19;4.80;;;1.63;;
19679;SDS011;9989;48.962;9.182;2023-07-20T14:02:44;3.97;;;1.60;;
19679;SDS011;9989;48.962;9.182;2023-07-20T14:05:10;4.43;;;1.50;;
19679;SDS011;9989;48.962;9.182;2023-07-20T14:07:36;3.37;;;1.40;;
19679;SDS011;9989;48.962;9.182;2023-07-20T14:10:02;3.63;;;1.60;;
19679;SDS011;9989;48.962;9.182;2023-07-20T14:12:28;5.03;;;1.50;;
19679;SDS011;9989;48.962;9.182;2023-07-20T14:14:54;4.57;;;1.73;;
19679;SDS011;9989;48.962;9.182;2023-07-20T14:17:21;3.27;;;1.60;;
19679;SDS011;9989;48.962;9.182;2023-07-20T14:19:46;4.60;;;1.60;;
19679;SDS011;9989;48.962;9.182;2023-07-20T14:22:12;3.63;;;1.60;;
19679;SDS011;9989;48.962;9.182;2023-07-20T14:24:38;4.33;;;1.87;;
19679;SDS011;9989;48.962;9.182;2023-07-20T14:27:04;4.17;;;1.90;;
19679;SDS011;9989;48.962;9.182;2023-07-20T14:29:29;8.63;;;1.70;;
19679;SDS011;9989;48.962;9.182;2023-07-20T14:31:56;6.43;;;1.83;;
19679;SDS011;9989;48.962;9.182;2023-07-20T14:34:22;4.47;;;1.70;;
19679;SDS011;9989;48.962;9.182;2023-07-20T14:36:48;4.33;;;1.60;;
19679;SDS011;9989;48.962;9.182;2023-07-20T14:39:15;3.93;;;1.53;;
19679;SDS011;9989;48.962;9.182;2023-07-20T14:41:40;3.30;;;1.40;;
19679;SDS011;9989;48.962;9.182;2023-07-20T14:44:06;4.07;;;1.63;;
19679;SDS011;9989;48.962;9.182;2023-07-20T14:46:32;6.03;;;1.60;;
19679;SDS011;9989;48.962;9.182;2023-07-20T14:48:57;3.80;;;1.70;;
19679;SDS011;9989;48.962;9.182;2023-07-20T14:51:23;3.70;;;1.70;;
19679;SDS011;9989;48.962;9.182;2023-07-20T14:53:49;4.33;;;1.80;;
19679;SDS011;9989;48.962;9.182;2023-07-20T14:56:15;2.67;;;1.30;;
19679;SDS011;9989;48.962;9.182;2023-07-20T14:58:41;3.73;;;1.60;;
19679;SDS011;9989;48.962;9.182;2023-07-20T15:01:07;4.73;;;1.90;;
19679;SDS011;9989;48.962;9.182;2023-07-20T15:03:32;3.70;;;1.63;;
19679;SDS011;9989;48.962;9.182;2023-07-20T15:05:58;5.80;;;1.80;;
19679;SDS011;9989;48.962;9.182;2023-07-20T15:08:24;3.60;;;1.50;;
19679;SDS011;9989;48.962;9.182;2023-07-20T15:10:49;3.57;;;1.57;;